sensor_id;sensor_type;location;lat;lon;timestamp;temperature;humidity
6443;DHT22;3254;47.372;8.512;2022-11-20T00:01:29;4.90;97.60
6443;DHT22;3254;47.372;8.512;2022-11-20T00:03:56;5.00;96.70
6443;DHT22;3254;47.372;8.512;2022-11-20T00:06:23;5.00;94.70
6443;DHT22;3254;47.372;8.512;2022-11-20T00:08:50;5.10;92.90
6443;DHT22;3254;47.372;8.512;2022-11-20T00:11:21;5.10;90.00
6443;DHT22;3254;47.372;8.512;2022-11-20T00:13:49;5.10;89.90
6443;DHT22;3254;47.372;8.512;2022-11-20T00:16:17;5.20;90.20
6443;DHT22;3254;47.372;8.512;2022-11-20T00:18:44;5.30;78.00
6443;DHT22;3254;47.372;8.512;2022-11-20T00:21:24;5.30;75.60
6443;DHT22;3254;47.372;8.512;2022-11-20T00:23:51;5.30;75.80
6443;DHT22;3254;47.372;8.512;2022-11-20T00:26:20;5.30;74.10
6443;DHT22;3254;47.372;8.512;2022-11-20T00:28:51;5.40;65.70
6443;DHT22;3254;47.372;8.512;2022-11-20T00:31:17;5.40;59.70
6443;DHT22;3254;47.372;8.512;2022-11-20T00:33:44;5.50;56.20
6443;DHT22;3254;47.372;8.512;2022-11-20T00:36:11;5.60;53.20
6443;DHT22;3254;47.372;8.512;2022-11-20T00:38:37;5.60;52.30
6443;DHT22;3254;47.372;8.512;2022-11-20T00:41:08;5.60;51.90
6443;DHT22;3254;47.372;8.512;2022-11-20T00:43:34;5.60;50.00
6443;DHT22;3254;47.372;8.512;2022-11-20T00:46:14;5.60;54.60
6443;DHT22;3254;47.372;8.512;2022-11-20T00:48:40;5.60;54.70
6443;DHT22;3254;47.372;8.512;2022-11-20T00:51:06;5.60;54.40
6443;DHT22;3254;47.372;8.512;2022-11-20T00:53:32;5.60;55.40
6443;DHT22;3254;47.372;8.512;2022-11-20T00:56:02;5.50;55.10
6443;DHT22;3254;47.372;8.512;2022-11-20T00:58:36;5.50;55.60
6443;DHT22;3254;47.372;8.512;2022-11-20T01:01:06;5.50;52.90
6443;DHT22;3254;47.372;8.512;2022-11-20T01:03:33;5.50;54.70
6443;DHT22;3254;47.372;8.512;2022-11-20T01:06:01;5.50;52.30
6443;DHT22;3254;47.372;8.512;2022-11-20T01:08:30;5.60;52.10
6443;DHT22;3254;47.372;8.512;2022-11-20T01:10:59;5.50;54.00
6443;DHT22;3254;47.372;8.512;2022-11-20T01:13:25;5.50;54.30
6443;DHT22;3254;47.372;8.512;2022-11-20T01:18:47;5.50;56.80
6443;DHT22;3254;47.372;8.512;2022-11-20T01:21:16;5.50;56.40
6443;DHT22;3254;47.372;8.512;2022-11-20T01:23:43;5.40;56.50
6443;DHT22;3254;47.372;8.512;2022-11-20T01:26:12;5.50;57.70
6443;DHT22;3254;47.372;8.512;2022-11-20T01:28:39;5.50;57.30
6443;DHT22;3254;47.372;8.512;2022-11-20T01:31:13;5.40;59.60
6443;DHT22;3254;47.372;8.512;2022-11-20T01:33:39;5.50;58.70
6443;DHT22;3254;47.372;8.512;2022-11-20T01:36:06;5.40;57.50
6443;DHT22;3254;47.372;8.512;2022-11-20T01:38:32;5.40;56.60
6443;DHT22;3254;47.372;8.512;2022-11-20T01:40:58;5.40;56.80
6443;DHT22;3254;47.372;8.512;2022-11-20T01:43:24;5.40;56.10
6443;DHT22;3254;47.372;8.512;2022-11-20T01:46:15;5.40;55.20
6443;DHT22;3254;47.372;8.512;2022-11-20T01:49:04;5.40;55.50
6443;DHT22;3254;47.372;8.512;2022-11-20T01:54:02;5.40;55.30
6443;DHT22;3254;47.372;8.512;2022-11-20T01:56:31;5.40;54.20
6443;DHT22;3254;47.372;8.512;2022-11-20T01:59:00;5.40;52.60
6443;DHT22;3254;47.372;8.512;2022-11-20T02:01:27;5.40;55.00
6443;DHT22;3254;47.372;8.512;2022-11-20T02:03:53;5.40;55.20
6443;DHT22;3254;47.372;8.512;2022-11-20T02:06:36;5.50;53.80
6443;DHT22;3254;47.372;8.512;2022-11-20T02:09:04;5.50;52.50
6443;DHT22;3254;47.372;8.512;2022-11-20T02:11:31;5.50;51.30
6443;DHT22;3254;47.372;8.512;2022-11-20T02:13:57;5.50;51.10
6443;DHT22;3254;47.372;8.512;2022-11-20T02:16:24;5.50;49.60
6443;DHT22;3254;47.372;8.512;2022-11-20T02:18:51;5.50;47.50
6443;DHT22;3254;47.372;8.512;2022-11-20T02:21:30;5.50;49.90
6443;DHT22;3254;47.372;8.512;2022-11-20T02:26:28;5.40;50.60
6443;DHT22;3254;47.372;8.512;2022-11-20T02:28:55;5.40;52.70
6443;DHT22;3254;47.372;8.512;2022-11-20T02:31:20;5.40;53.70
6443;DHT22;3254;47.372;8.512;2022-11-20T02:33:56;5.30;56.10
6443;DHT22;3254;47.372;8.512;2022-11-20T02:36:23;5.30;54.50
6443;DHT22;3254;47.372;8.512;2022-11-20T02:38:50;5.20;57.70
6443;DHT22;3254;47.372;8.512;2022-11-20T02:41:16;5.30;59.70
6443;DHT22;3254;47.372;8.512;2022-11-20T02:43:41;5.30;58.00
6443;DHT22;3254;47.372;8.512;2022-11-20T02:46:08;5.30;59.10
6443;DHT22;3254;47.372;8.512;2022-11-20T02:48:33;5.40;61.40
6443;DHT22;3254;47.372;8.512;2022-11-20T02:50:59;5.40;61.60
6443;DHT22;3254;47.372;8.512;2022-11-20T02:53:25;5.40;60.40
6443;DHT22;3254;47.372;8.512;2022-11-20T02:55:51;5.40;58.40
6443;DHT22;3254;47.372;8.512;2022-11-20T02:58:16;5.40;57.40
6443;DHT22;3254;47.372;8.512;2022-11-20T03:00:42;5.40;57.90
6443;DHT22;3254;47.372;8.512;2022-11-20T03:03:08;5.40;57.90
6443;DHT22;3254;47.372;8.512;2022-11-20T03:05:33;5.40;55.50
6443;DHT22;3254;47.372;8.512;2022-11-20T03:07:59;5.40;52.80
6443;DHT22;3254;47.372;8.512;2022-11-20T03:10:24;5.40;55.10
6443;DHT22;3254;47.372;8.512;2022-11-20T03:12:56;5.40;53.10
6443;DHT22;3254;47.372;8.512;2022-11-20T03:15:23;5.40;49.50
6443;DHT22;3254;47.372;8.512;2022-11-20T03:17:49;5.30;49.50
6443;DHT22;3254;47.372;8.512;2022-11-20T03:20:14;5.30;51.00
6443;DHT22;3254;47.372;8.512;2022-11-20T03:22:40;5.40;49.80
6443;DHT22;3254;47.372;8.512;2022-11-20T03:25:06;5.40;51.80
6443;DHT22;3254;47.372;8.512;2022-11-20T03:27:35;5.40;51.00
6443;DHT22;3254;47.372;8.512;2022-11-20T03:30:00;5.40;49.50
6443;DHT22;3254;47.372;8.512;2022-11-20T03:32:26;5.40;50.40
6443;DHT22;3254;47.372;8.512;2022-11-20T03:34:52;5.30;46.80
6443;DHT22;3254;47.372;8.512;2022-11-20T03:37:17;5.30;47.00
6443;DHT22;3254;47.372;8.512;2022-11-20T03:39:43;5.30;46.90
6443;DHT22;3254;47.372;8.512;2022-11-20T03:42:09;5.20;49.00
6443;DHT22;3254;47.372;8.512;2022-11-20T03:44:55;5.20;48.10
6443;DHT22;3254;47.372;8.512;2022-11-20T03:47:20;5.10;49.50
6443;DHT22;3254;47.372;8.512;2022-11-20T03:49:46;5.10;50.90
6443;DHT22;3254;47.372;8.512;2022-11-20T03:52:12;5.20;50.80
6443;DHT22;3254;47.372;8.512;2022-11-20T03:54:37;5.20;47.30
6443;DHT22;3254;47.372;8.512;2022-11-20T03:57:03;5.20;45.80
6443;DHT22;3254;47.372;8.512;2022-11-20T03:59:29;5.20;43.10
6443;DHT22;3254;47.372;8.512;2022-11-20T04:01:54;5.20;42.20
6443;DHT22;3254;47.372;8.512;2022-11-20T04:04:20;5.20;39.00
6443;DHT22;3254;47.372;8.512;2022-11-20T04:06:45;5.30;38.80
6443;DHT22;3254;47.372;8.512;2022-11-20T04:09:11;5.30;36.10
6443;DHT22;3254;47.372;8.512;2022-11-20T04:11:39;5.30;36.90
6443;DHT22;3254;47.372;8.512;2022-11-20T04:14:06;5.30;34.50
6443;DHT22;3254;47.372;8.512;2022-11-20T04:16:37;5.30;33.50
6443;DHT22;3254;47.372;8.512;2022-11-20T04:19:05;5.20;35.10
6443;DHT22;3254;47.372;8.512;2022-11-20T04:21:31;5.30;34.40
6443;DHT22;3254;47.372;8.512;2022-11-20T04:23:57;5.20;32.70
6443;DHT22;3254;47.372;8.512;2022-11-20T04:26:25;5.20;31.60
6443;DHT22;3254;47.372;8.512;2022-11-20T04:28:52;5.30;30.00
6443;DHT22;3254;47.372;8.512;2022-11-20T04:31:20;5.20;29.20
6443;DHT22;3254;47.372;8.512;2022-11-20T04:33:46;5.10;29.20
6443;DHT22;3254;47.372;8.512;2022-11-20T04:36:13;5.00;30.00
6443;DHT22;3254;47.372;8.512;2022-11-20T04:38:40;4.90;30.20
6443;DHT22;3254;47.372;8.512;2022-11-20T04:41:10;4.80;30.00
6443;DHT22;3254;47.372;8.512;2022-11-20T04:43:39;4.70;30.30
6443;DHT22;3254;47.372;8.512;2022-11-20T04:46:04;4.60;31.00
6443;DHT22;3254;47.372;8.512;2022-11-20T04:48:30;4.50;32.60
6443;DHT22;3254;47.372;8.512;2022-11-20T04:50:56;4.50;31.90
6443;DHT22;3254;47.372;8.512;2022-11-20T04:53:23;4.50;32.90
6443;DHT22;3254;47.372;8.512;2022-11-20T04:55:48;4.60;31.60
6443;DHT22;3254;47.372;8.512;2022-11-20T04:58:15;4.70;30.30
6443;DHT22;3254;47.372;8.512;2022-11-20T05:00:40;4.50;30.30
6443;DHT22;3254;47.372;8.512;2022-11-20T05:03:06;4.40;31.80
6443;DHT22;3254;47.372;8.512;2022-11-20T05:05:34;4.50;31.40
6443;DHT22;3254;47.372;8.512;2022-11-20T05:08:00;4.50;28.80
6443;DHT22;3254;47.372;8.512;2022-11-20T05:10:27;4.50;28.20
6443;DHT22;3254;47.372;8.512;2022-11-20T05:12:53;4.50;27.50
6443;DHT22;3254;47.372;8.512;2022-11-20T05:15:19;4.50;26.80
6443;DHT22;3254;47.372;8.512;2022-11-20T05:17:48;4.50;26.90
6443;DHT22;3254;47.372;8.512;2022-11-20T05:20:14;4.40;28.10
6443;DHT22;3254;47.372;8.512;2022-11-20T05:22:40;4.30;28.60
6443;DHT22;3254;47.372;8.512;2022-11-20T05:25:06;4.30;29.60
6443;DHT22;3254;47.372;8.512;2022-11-20T05:27:32;4.30;30.00
6443;DHT22;3254;47.372;8.512;2022-11-20T05:29:57;4.20;30.50
6443;DHT22;3254;47.372;8.512;2022-11-20T05:32:23;4.30;30.00
6443;DHT22;3254;47.372;8.512;2022-11-20T05:34:51;4.20;30.00
6443;DHT22;3254;47.372;8.512;2022-11-20T05:37:17;4.30;30.80
6443;DHT22;3254;47.372;8.512;2022-11-20T05:39:42;4.30;30.80
6443;DHT22;3254;47.372;8.512;2022-11-20T05:42:08;4.30;30.00
6443;DHT22;3254;47.372;8.512;2022-11-20T05:44:52;4.40;29.60
6443;DHT22;3254;47.372;8.512;2022-11-20T05:47:18;4.50;28.20
6443;DHT22;3254;47.372;8.512;2022-11-20T05:49:43;4.80;25.20
6443;DHT22;3254;47.372;8.512;2022-11-20T05:52:09;4.90;24.70
6443;DHT22;3254;47.372;8.512;2022-11-20T05:54:34;5.00;23.90
6443;DHT22;3254;47.372;8.512;2022-11-20T05:57:00;5.00;23.50
6443;DHT22;3254;47.372;8.512;2022-11-20T05:59:26;5.00;22.60
6443;DHT22;3254;47.372;8.512;2022-11-20T06:01:51;5.10;22.70
6443;DHT22;3254;47.372;8.512;2022-11-20T06:04:17;5.10;22.30
6443;DHT22;3254;47.372;8.512;2022-11-20T06:06:42;5.00;23.00
6443;DHT22;3254;47.372;8.512;2022-11-20T06:09:08;5.00;23.00
6443;DHT22;3254;47.372;8.512;2022-11-20T06:11:34;5.10;23.00
6443;DHT22;3254;47.372;8.512;2022-11-20T06:13:59;5.10;22.80
6443;DHT22;3254;47.372;8.512;2022-11-20T06:16:25;5.30;20.30
6443;DHT22;3254;47.372;8.512;2022-11-20T06:18:50;5.30;20.60
6443;DHT22;3254;47.372;8.512;2022-11-20T06:21:18;5.30;20.00
6443;DHT22;3254;47.372;8.512;2022-11-20T06:23:45;5.30;21.20
6443;DHT22;3254;47.372;8.512;2022-11-20T06:26:16;5.30;21.40
6443;DHT22;3254;47.372;8.512;2022-11-20T06:28:42;5.30;22.70
6443;DHT22;3254;47.372;8.512;2022-11-20T06:31:10;5.20;23.30
6443;DHT22;3254;47.372;8.512;2022-11-20T06:33:36;5.20;25.40
6443;DHT22;3254;47.372;8.512;2022-11-20T06:36:03;5.20;25.60
6443;DHT22;3254;47.372;8.512;2022-11-20T06:38:29;5.20;26.60
6443;DHT22;3254;47.372;8.512;2022-11-20T06:40:55;5.20;27.70
6443;DHT22;3254;47.372;8.512;2022-11-20T06:43:22;5.10;29.50
6443;DHT22;3254;47.372;8.512;2022-11-20T06:46:06;5.10;29.20
6443;DHT22;3254;47.372;8.512;2022-11-20T06:48:32;5.10;30.00
6443;DHT22;3254;47.372;8.512;2022-11-20T06:50:58;5.20;27.90
6443;DHT22;3254;47.372;8.512;2022-11-20T06:53:24;5.20;26.40
6443;DHT22;3254;47.372;8.512;2022-11-20T06:55:51;5.20;25.10
6443;DHT22;3254;47.372;8.512;2022-11-20T06:58:17;5.20;24.70
6443;DHT22;3254;47.372;8.512;2022-11-20T07:00:43;5.30;22.50
6443;DHT22;3254;47.372;8.512;2022-11-20T07:03:11;5.30;22.30
6443;DHT22;3254;47.372;8.512;2022-11-20T07:05:37;5.30;22.30
6443;DHT22;3254;47.372;8.512;2022-11-20T07:08:04;5.20;21.90
6443;DHT22;3254;47.372;8.512;2022-11-20T07:10:30;5.30;21.90
6443;DHT22;3254;47.372;8.512;2022-11-20T07:12:56;5.30;21.10
6443;DHT22;3254;47.372;8.512;2022-11-20T07:15:23;5.40;22.40
6443;DHT22;3254;47.372;8.512;2022-11-20T07:17:49;5.30;22.50
6443;DHT22;3254;47.372;8.512;2022-11-20T07:20:15;5.40;19.00
6443;DHT22;3254;47.372;8.512;2022-11-20T07:22:41;5.50;18.60
6443;DHT22;3254;47.372;8.512;2022-11-20T07:25:08;5.50;18.70
6443;DHT22;3254;47.372;8.512;2022-11-20T07:27:34;5.50;17.50
6443;DHT22;3254;47.372;8.512;2022-11-20T07:30:00;5.60;15.80
6443;DHT22;3254;47.372;8.512;2022-11-20T07:32:26;5.60;15.90
6443;DHT22;3254;47.372;8.512;2022-11-20T07:34:51;5.60;15.50
6443;DHT22;3254;47.372;8.512;2022-11-20T07:37:17;5.80;12.80
6443;DHT22;3254;47.372;8.512;2022-11-20T07:39:43;5.80;12.10
6443;DHT22;3254;47.372;8.512;2022-11-20T07:42:09;5.90;11.80
6443;DHT22;3254;47.372;8.512;2022-11-20T07:44:35;6.00;9.90
6443;DHT22;3254;47.372;8.512;2022-11-20T07:47:01;6.00;7.50
6443;DHT22;3254;47.372;8.512;2022-11-20T07:49:27;6.10;7.40
6443;DHT22;3254;47.372;8.512;2022-11-20T07:51:54;6.20;6.70
6443;DHT22;3254;47.372;8.512;2022-11-20T07:54:22;6.20;6.40
6443;DHT22;3254;47.372;8.512;2022-11-20T07:56:49;6.20;4.90
6443;DHT22;3254;47.372;8.512;2022-11-20T07:59:14;6.20;4.60
6443;DHT22;3254;47.372;8.512;2022-11-20T08:01:41;6.20;4.60
6443;DHT22;3254;47.372;8.512;2022-11-20T08:04:08;6.20;5.00
6443;DHT22;3254;47.372;8.512;2022-11-20T08:06:35;6.20;5.00
6443;DHT22;3254;47.372;8.512;2022-11-20T08:09:01;6.30;5.30
6443;DHT22;3254;47.372;8.512;2022-11-20T08:11:27;6.30;5.10
6443;DHT22;3254;47.372;8.512;2022-11-20T08:14:11;6.40;4.80
6443;DHT22;3254;47.372;8.512;2022-11-20T08:16:40;6.40;3.90
6443;DHT22;3254;47.372;8.512;2022-11-20T08:19:06;6.40;3.30
6443;DHT22;3254;47.372;8.512;2022-11-20T08:21:32;6.40;2.50
6443;DHT22;3254;47.372;8.512;2022-11-20T08:23:58;6.40;2.50
6443;DHT22;3254;47.372;8.512;2022-11-20T08:26:25;6.40;1.10
6443;DHT22;3254;47.372;8.512;2022-11-20T08:28:54;6.40;1.30
6443;DHT22;3254;47.372;8.512;2022-11-20T08:31:21;6.40;1.30
6443;DHT22;3254;47.372;8.512;2022-11-20T08:33:47;6.40;1.00
6443;DHT22;3254;47.372;8.512;2022-11-20T08:36:12;6.30;1.00
6443;DHT22;3254;47.372;8.512;2022-11-20T08:38:38;6.30;1.00
6443;DHT22;3254;47.372;8.512;2022-11-20T08:41:05;6.30;1.00
6443;DHT22;3254;47.372;8.512;2022-11-20T08:43:49;6.30;1.00
6443;DHT22;3254;47.372;8.512;2022-11-20T08:46:15;6.40;1.00
6443;DHT22;3254;47.372;8.512;2022-11-20T08:48:41;6.40;1.00
6443;DHT22;3254;47.372;8.512;2022-11-20T08:51:07;6.50;1.00
6443;DHT22;3254;47.372;8.512;2022-11-20T08:53:32;6.60;1.00
6443;DHT22;3254;47.372;8.512;2022-11-20T08:55:58;6.70;1.00
6443;DHT22;3254;47.372;8.512;2022-11-20T08:58:24;6.60;1.00
6443;DHT22;3254;47.372;8.512;2022-11-20T09:00:50;6.70;1.00
6443;DHT22;3254;47.372;8.512;2022-11-20T09:03:16;6.70;1.00
6443;DHT22;3254;47.372;8.512;2022-11-20T09:05:42;6.80;1.00
6443;DHT22;3254;47.372;8.512;2022-11-20T09:08:08;7.00;1.00
6443;DHT22;3254;47.372;8.512;2022-11-20T09:10:34;7.20;1.00
6443;DHT22;3254;47.372;8.512;2022-11-20T09:13:00;7.50;1.00
6443;DHT22;3254;47.372;8.512;2022-11-20T09:15:26;7.60;1.00
6443;DHT22;3254;47.372;8.512;2022-11-20T09:20:17;7.70;1.00
6443;DHT22;3254;47.372;8.512;2022-11-20T09:22:43;7.70;1.00
6443;DHT22;3254;47.372;8.512;2022-11-20T09:25:08;7.80;1.00
6443;DHT22;3254;47.372;8.512;2022-11-20T09:27:34;8.00;1.00
6443;DHT22;3254;47.372;8.512;2022-11-20T09:30:01;8.10;1.00
6443;DHT22;3254;47.372;8.512;2022-11-20T09:32:26;8.10;1.00
6443;DHT22;3254;47.372;8.512;2022-11-20T09:34:52;7.90;1.00
6443;DHT22;3254;47.372;8.512;2022-11-20T09:37:18;7.90;1.00
6443;DHT22;3254;47.372;8.512;2022-11-20T09:39:43;8.10;1.00
6443;DHT22;3254;47.372;8.512;2022-11-20T09:42:21;8.20;1.00
6443;DHT22;3254;47.372;8.512;2022-11-20T09:50:49;7.90;1.00
6443;DHT22;3254;47.372;8.512;2022-11-20T09:53:41;8.00;1.00
6443;DHT22;3254;47.372;8.512;2022-11-20T09:56:11;8.10;1.00
6443;DHT22;3254;47.372;8.512;2022-11-20T09:58:46;8.00;1.00
6443;DHT22;3254;47.372;8.512;2022-11-20T10:01:15;8.00;1.00
6443;DHT22;3254;47.372;8.512;2022-11-20T10:04:02;8.10;1.00
6443;DHT22;3254;47.372;8.512;2022-11-20T10:07:35;8.30;1.00
6443;DHT22;3254;47.372;8.512;2022-11-20T10:09:31;8.30;1.00
6443;DHT22;3254;47.372;8.512;2022-11-20T10:12:18;8.30;1.00
6443;DHT22;3254;47.372;8.512;2022-11-20T10:34:03;11.70;1.00
6443;DHT22;3254;47.372;8.512;2022-11-20T10:36:38;11.70;1.00
6443;DHT22;3254;47.372;8.512;2022-11-20T10:39:11;13.00;1.00
6443;DHT22;3254;47.372;8.512;2022-11-20T10:41:43;14.00;1.00
6443;DHT22;3254;47.372;8.512;2022-11-20T10:44:17;14.30;1.00
6443;DHT22;3254;47.372;8.512;2022-11-20T10:47:13;14.50;1.00
6443;DHT22;3254;47.372;8.512;2022-11-20T10:49:41;14.10;1.00
6443;DHT22;3254;47.372;8.512;2022-11-20T10:52:42;13.70;1.00
6443;DHT22;3254;47.372;8.512;2022-11-20T10:55:22;13.40;1.00
6443;DHT22;3254;47.372;8.512;2022-11-20T11:00:16;13.30;1.00
6443;DHT22;3254;47.372;8.512;2022-11-20T11:05:37;13.30;1.00
6443;DHT22;3254;47.372;8.512;2022-11-20T11:08:10;13.60;1.00
6443;DHT22;3254;47.372;8.512;2022-11-20T11:10:52;14.20;1.00
6443;DHT22;3254;47.372;8.512;2022-11-20T11:13:28;15.40;1.00
6443;DHT22;3254;47.372;8.512;2022-11-20T11:15:54;15.30;1.00
6443;DHT22;3254;47.372;8.512;2022-11-20T11:18:30;15.40;1.00
6443;DHT22;3254;47.372;8.512;2022-11-20T11:20:59;15.50;1.00
6443;DHT22;3254;47.372;8.512;2022-11-20T11:23:42;14.80;1.00
6443;DHT22;3254;47.372;8.512;2022-11-20T11:26:22;13.30;1.00
6443;DHT22;3254;47.372;8.512;2022-11-20T11:29:02;12.10;1.00
6443;DHT22;3254;47.372;8.512;2022-11-20T11:31:29;12.00;1.00
6443;DHT22;3254;47.372;8.512;2022-11-20T11:36:32;11.10;1.00
6443;DHT22;3254;47.372;8.512;2022-11-20T11:38:58;11.20;1.00
6443;DHT22;3254;47.372;8.512;2022-11-20T11:41:28;11.30;1.00
6443;DHT22;3254;47.372;8.512;2022-11-20T11:44:03;11.20;1.00
6443;DHT22;3254;47.372;8.512;2022-11-20T11:46:57;12.30;1.00
6443;DHT22;3254;47.372;8.512;2022-11-20T11:49:23;13.50;1.00
6443;DHT22;3254;47.372;8.512;2022-11-20T11:57:00;11.70;1.00
6443;DHT22;3254;47.372;8.512;2022-11-20T11:59:33;11.20;1.00
6443;DHT22;3254;47.372;8.512;2022-11-20T12:02:32;10.90;1.00
6443;DHT22;3254;47.372;8.512;2022-11-20T12:13:25;9.90;1.00
6443;DHT22;3254;47.372;8.512;2022-11-20T12:15:53;9.60;1.00
6443;DHT22;3254;47.372;8.512;2022-11-20T12:18:20;9.30;1.00
6443;DHT22;3254;47.372;8.512;2022-11-20T12:29:27;8.60;1.00
6443;DHT22;3254;47.372;8.512;2022-11-20T12:32:00;8.70;1.00
6443;DHT22;3254;47.372;8.512;2022-11-20T12:38:08;9.00;1.00
6443;DHT22;3254;47.372;8.512;2022-11-20T12:40:39;9.00;1.00
6443;DHT22;3254;47.372;8.512;2022-11-20T12:43:26;9.40;1.00
6443;DHT22;3254;47.372;8.512;2022-11-20T12:46:42;11.20;1.00
6443;DHT22;3254;47.372;8.512;2022-11-20T12:55:42;10.90;1.00
6443;DHT22;3254;47.372;8.512;2022-11-20T13:06:50;10.00;1.00
6443;DHT22;3254;47.372;8.512;2022-11-20T13:09:19;10.30;1.00
6443;DHT22;3254;47.372;8.512;2022-11-20T13:12:09;10.80;1.00
6443;DHT22;3254;47.372;8.512;2022-11-20T13:14:45;11.10;1.00
6443;DHT22;3254;47.372;8.512;2022-11-20T13:19:55;11.50;1.00
6443;DHT22;3254;47.372;8.512;2022-11-20T13:22:42;11.40;1.00
6443;DHT22;3254;47.372;8.512;2022-11-20T13:25:10;11.10;1.00
6443;DHT22;3254;47.372;8.512;2022-11-20T13:27:35;11.80;1.00
6443;DHT22;3254;47.372;8.512;2022-11-20T13:30:25;12.50;1.00
6443;DHT22;3254;47.372;8.512;2022-11-20T13:35:40;12.10;1.00
6443;DHT22;3254;47.372;8.512;2022-11-20T13:38:12;11.70;1.00
6443;DHT22;3254;47.372;8.512;2022-11-20T13:46:00;10.90;1.00
6443;DHT22;3254;47.372;8.512;2022-11-20T13:48:30;10.80;1.00
6443;DHT22;3254;47.372;8.512;2022-11-20T13:59:57;10.00;1.00
6443;DHT22;3254;47.372;8.512;2022-11-20T14:02:26;9.80;1.00
6443;DHT22;3254;47.372;8.512;2022-11-20T14:04:57;10.00;1.00
6443;DHT22;3254;47.372;8.512;2022-11-20T14:07:27;10.10;1.00
6443;DHT22;3254;47.372;8.512;2022-11-20T14:09:57;10.20;1.00
6443;DHT22;3254;47.372;8.512;2022-11-20T14:12:32;10.10;1.00
6443;DHT22;3254;47.372;8.512;2022-11-20T14:14:59;10.00;1.00
6443;DHT22;3254;47.372;8.512;2022-11-20T14:17:32;9.90;1.00
6443;DHT22;3254;47.372;8.512;2022-11-20T14:20:07;9.70;1.00
6443;DHT22;3254;47.372;8.512;2022-11-20T14:22:37;9.30;1.00
6443;DHT22;3254;47.372;8.512;2022-11-20T14:27:58;9.40;1.00
6443;DHT22;3254;47.372;8.512;2022-11-20T14:30:47;9.40;1.00
6443;DHT22;3254;47.372;8.512;2022-11-20T14:33:14;9.50;1.00
6443;DHT22;3254;47.372;8.512;2022-11-20T14:35:46;9.60;1.00
6443;DHT22;3254;47.372;8.512;2022-11-20T14:38:16;9.80;1.00
6443;DHT22;3254;47.372;8.512;2022-11-20T14:40:42;9.80;1.00
6443;DHT22;3254;47.372;8.512;2022-11-20T14:43:26;9.60;1.00
6443;DHT22;3254;47.372;8.512;2022-11-20T14:46:00;9.50;1.00
6443;DHT22;3254;47.372;8.512;2022-11-20T14:48:45;9.40;1.00
6443;DHT22;3254;47.372;8.512;2022-11-20T14:51:36;9.30;1.00
6443;DHT22;3254;47.372;8.512;2022-11-20T14:54:18;9.20;1.00
6443;DHT22;3254;47.372;8.512;2022-11-20T14:57:03;9.00;1.00
6443;DHT22;3254;47.372;8.512;2022-11-20T14:59:33;8.80;1.00
6443;DHT22;3254;47.372;8.512;2022-11-20T15:02:11;8.60;1.00
6443;DHT22;3254;47.372;8.512;2022-11-20T15:04:56;8.50;1.00
6443;DHT22;3254;47.372;8.512;2022-11-20T15:07:26;8.40;1.00
6443;DHT22;3254;47.372;8.512;2022-11-20T15:10:08;8.30;1.00
6443;DHT22;3254;47.372;8.512;2022-11-20T15:12:40;8.20;1.00
6443;DHT22;3254;47.372;8.512;2022-11-20T15:15:12;8.10;1.00
6443;DHT22;3254;47.372;8.512;2022-11-20T15:17:40;8.00;1.00
6443;DHT22;3254;47.372;8.512;2022-11-20T15:20:14;8.00;1.00
6443;DHT22;3254;47.372;8.512;2022-11-20T15:22:41;8.00;1.00
6443;DHT22;3254;47.372;8.512;2022-11-20T15:25:17;7.90;1.00
6443;DHT22;3254;47.372;8.512;2022-11-20T15:27:44;7.80;1.00
6443;DHT22;3254;47.372;8.512;2022-11-20T15:30:16;7.70;1.00
6443;DHT22;3254;47.372;8.512;2022-11-20T15:32:43;7.60;1.00
6443;DHT22;3254;47.372;8.512;2022-11-20T15:35:09;7.60;1.00
6443;DHT22;3254;47.372;8.512;2022-11-20T15:37:35;7.60;1.00
6443;DHT22;3254;47.372;8.512;2022-11-20T15:40:02;7.50;1.00
6443;DHT22;3254;47.372;8.512;2022-11-20T15:42:27;7.50;1.00
6443;DHT22;3254;47.372;8.512;2022-11-20T15:44:53;7.40;1.00
6443;DHT22;3254;47.372;8.512;2022-11-20T15:47:21;7.20;1.00
6443;DHT22;3254;47.372;8.512;2022-11-20T15:49:50;7.10;1.00
6443;DHT22;3254;47.372;8.512;2022-11-20T15:52:16;7.00;1.00
6443;DHT22;3254;47.372;8.512;2022-11-20T15:54:41;7.10;1.00
6443;DHT22;3254;47.372;8.512;2022-11-20T15:57:07;7.10;1.00
6443;DHT22;3254;47.372;8.512;2022-11-20T15:59:33;7.20;1.00
6443;DHT22;3254;47.372;8.512;2022-11-20T16:01:59;7.10;1.00
6443;DHT22;3254;47.372;8.512;2022-11-20T16:04:25;7.10;1.00
6443;DHT22;3254;47.372;8.512;2022-11-20T16:06:50;7.00;1.00
6443;DHT22;3254;47.372;8.512;2022-11-20T16:09:16;7.10;1.00
6443;DHT22;3254;47.372;8.512;2022-11-20T16:11:42;7.20;1.00
6443;DHT22;3254;47.372;8.512;2022-11-20T16:14:10;7.10;1.00
6443;DHT22;3254;47.372;8.512;2022-11-20T16:17:08;7.10;1.00
6443;DHT22;3254;47.372;8.512;2022-11-20T16:19:33;7.10;1.00
6443;DHT22;3254;47.372;8.512;2022-11-20T16:21:59;7.00;1.00
6443;DHT22;3254;47.372;8.512;2022-11-20T16:24:27;6.90;1.00
6443;DHT22;3254;47.372;8.512;2022-11-20T16:26:54;6.90;1.00
6443;DHT22;3254;47.372;8.512;2022-11-20T16:29:19;6.90;1.00
6443;DHT22;3254;47.372;8.512;2022-11-20T16:31:45;6.80;1.00
6443;DHT22;3254;47.372;8.512;2022-11-20T16:34:11;6.70;1.00
6443;DHT22;3254;47.372;8.512;2022-11-20T16:36:39;6.70;1.00
6443;DHT22;3254;47.372;8.512;2022-11-20T16:39:05;6.60;1.00
6443;DHT22;3254;47.372;8.512;2022-11-20T16:41:33;6.90;1.00
6443;DHT22;3254;47.372;8.512;2022-11-20T16:44:01;7.00;1.00
6443;DHT22;3254;47.372;8.512;2022-11-20T16:46:29;7.10;1.00
6443;DHT22;3254;47.372;8.512;2022-11-20T16:49:03;7.30;1.00
6443;DHT22;3254;47.372;8.512;2022-11-20T16:51:34;7.30;1.00
6443;DHT22;3254;47.372;8.512;2022-11-20T16:54:04;7.20;1.00
6443;DHT22;3254;47.372;8.512;2022-11-20T16:56:30;7.00;1.00
6443;DHT22;3254;47.372;8.512;2022-11-20T16:58:57;6.90;1.00
6443;DHT22;3254;47.372;8.512;2022-11-20T17:01:25;6.80;1.00
6443;DHT22;3254;47.372;8.512;2022-11-20T17:04:06;6.90;1.00
6443;DHT22;3254;47.372;8.512;2022-11-20T17:06:37;6.90;1.00
6443;DHT22;3254;47.372;8.512;2022-11-20T17:09:04;7.00;1.00
6443;DHT22;3254;47.372;8.512;2022-11-20T17:11:30;7.10;1.00
6443;DHT22;3254;47.372;8.512;2022-11-20T17:13:58;7.10;1.00
6443;DHT22;3254;47.372;8.512;2022-11-20T17:16:32;7.10;1.00
6443;DHT22;3254;47.372;8.512;2022-11-20T17:18:58;7.10;1.00
6443;DHT22;3254;47.372;8.512;2022-11-20T17:21:25;7.10;1.00
6443;DHT22;3254;47.372;8.512;2022-11-20T17:23:51;7.10;1.00
6443;DHT22;3254;47.372;8.512;2022-11-20T17:26:19;7.10;1.00
6443;DHT22;3254;47.372;8.512;2022-11-20T17:29:32;6.90;1.00
6443;DHT22;3254;47.372;8.512;2022-11-20T17:31:34;7.00;1.00
6443;DHT22;3254;47.372;8.512;2022-11-20T17:34:00;7.00;1.00
6443;DHT22;3254;47.372;8.512;2022-11-20T17:36:27;6.90;1.00
6443;DHT22;3254;47.372;8.512;2022-11-20T17:38:53;6.80;1.00
6443;DHT22;3254;47.372;8.512;2022-11-20T17:41:21;6.80;1.00
6443;DHT22;3254;47.372;8.512;2022-11-20T17:43:48;6.80;1.00
6443;DHT22;3254;47.372;8.512;2022-11-20T17:46:19;6.90;1.00
6443;DHT22;3254;47.372;8.512;2022-11-20T17:48:46;7.00;1.00
6443;DHT22;3254;47.372;8.512;2022-11-20T17:51:17;7.10;1.00
6443;DHT22;3254;47.372;8.512;2022-11-20T17:53:46;7.10;1.00
6443;DHT22;3254;47.372;8.512;2022-11-20T17:56:13;7.10;1.00
6443;DHT22;3254;47.372;8.512;2022-11-20T17:58:57;7.10;1.00
6443;DHT22;3254;47.372;8.512;2022-11-20T18:01:23;7.10;1.00
6443;DHT22;3254;47.372;8.512;2022-11-20T18:03:49;7.30;1.00
6443;DHT22;3254;47.372;8.512;2022-11-20T18:06:17;7.30;1.00
6443;DHT22;3254;47.372;8.512;2022-11-20T18:08:44;7.30;1.00
6443;DHT22;3254;47.372;8.512;2022-11-20T18:13:48;7.30;1.00
6443;DHT22;3254;47.372;8.512;2022-11-20T18:16:35;7.40;1.00
6443;DHT22;3254;47.372;8.512;2022-11-20T18:19:01;7.40;1.00
6443;DHT22;3254;47.372;8.512;2022-11-20T18:21:28;7.40;1.00
6443;DHT22;3254;47.372;8.512;2022-11-20T18:23:55;7.40;1.00
6443;DHT22;3254;47.372;8.512;2022-11-20T18:26:21;7.30;1.00
6443;DHT22;3254;47.372;8.512;2022-11-20T18:28:48;7.30;1.00